Time;durP1;ratioP1;P1;durP2;ratioP2;P2;SDS_P1;SDS_P2;PMS_P1;PMS_P2;Temp;Humidity;BMP_temperature;BMP_pressure;BME280_temperature;BME280_humidity;BME280_pressure;Samples;Min_cycle;Max_cycle;Signal;HPM_P1;HPM_P2
2023/01/20 00:02:20;;;;;;;;;45.50;35.50;;;;;;;;5066723;28;13732;-72
2023/01/20 00:04:46;;;;;;;;;33.33;29.00;;;;;;;;5066615;28;14264;-72
2023/01/20 00:07:12;;;;;;;;;29.20;26.00;;;;;;;;5067024;28;13526;-74
2023/01/20 00:09:37;;;;;;;;;24.75;24.75;;;;;;;;5066682;28;13510;-74
2023/01/20 00:12:02;;;;;;;;;28.25;25.00;;;;;;;;5066410;28;13662;-74
2023/01/20 00:14:28;;;;;;;;;23.67;21.33;;;;;;;;5066529;28;13647;-74
2023/01/20 00:16:56;;;;;;;;;22.25;21.00;;;;;;;;5065075;28;13544;-74
2023/01/20 00:19:21;;;;;;;;;21.20;18.80;;;;;;;;5066603;28;13611;-74
2023/01/20 00:21:46;;;;;;;;;24.50;19.25;;;;;;;;5065214;28;13637;-74
2023/01/20 00:24:11;;;;;;;;;19.00;17.00;;;;;;;;5064935;28;13675;-74
2023/01/20 00:26:37;;;;;;;;;21.33;21.33;;;;;;;;5066274;28;13475;-73
2023/01/20 00:29:02;;;;;;;;;22.75;20.00;;;;;;;;5066337;28;13561;-72
2023/01/20 00:31:29;;;;;;;;;18.00;18.00;;;;;;;;5066248;28;13599;-73
2023/01/20 00:33:55;;;;;;;;;20.00;18.50;;;;;;;;5066397;28;13591;-72
2023/01/20 00:36:22;;;;;;;;;22.80;20.20;;;;;;;;5066257;28;13540;-73
2023/01/20 00:38:47;;;;;;;;;24.25;21.50;;;;;;;;5066119;28;13547;-73
2023/01/20 00:41:13;;;;;;;;;19.33;19.33;;;;;;;;5065936;28;13532;-73
2023/01/20 00:43:38;;;;;;;;;32.00;24.33;;;;;;;;5066075;28;13627;-73
2023/01/20 00:46:04;;;;;;;;;32.75;27.50;;;;;;;;5066065;28;14321;-73
2023/01/20 00:48:30;;;;;;;;;30.25;24.75;;;;;;;;5065999;28;13516;-73
2023/01/20 00:50:55;;;;;;;;;23.00;21.00;;;;;;;;5064705;28;14235;-73
2023/01/20 00:53:20;;;;;;;;;22.50;21.25;;;;;;;;5065910;28;13642;-73
2023/01/20 00:55:45;;;;;;;;;26.75;24.25;;;;;;;;5066228;28;13497;-74
2023/01/20 00:58:11;;;;;;;;;31.25;27.50;;;;;;;;5100988;22;13537;-79
2023/01/20 01:00:36;;;;;;;;;27.25;25.50;;;;;;;;5089347;28;13446;-79
2023/01/20 01:03:01;;;;;;;;;28.75;28.75;;;;;;;;5089210;28;13468;-80
2023/01/20 01:05:26;;;;;;;;;27.00;24.00;;;;;;;;5107595;28;13419;-79
2023/01/20 01:07:52;;;;;;;;;25.50;23.75;;;;;;;;5107265;28;13513;-80
2023/01/20 01:10:17;;;;;;;;;25.00;21.00;;;;;;;;5107493;28;13414;-80
2023/01/20 01:12:42;;;;;;;;;23.00;21.50;;;;;;;;5107254;28;13563;-81
2023/01/20 01:15:08;;;;;;;;;27.00;23.25;;;;;;;;5089077;28;13704;-80
2023/01/20 01:17:33;;;;;;;;;27.75;27.75;;;;;;;;5107254;28;13503;-80
2023/01/20 01:19:58;;;;;;;;;30.25;26.00;;;;;;;;5107351;28;13573;-80
2023/01/20 01:22:23;;;;;;;;;20.00;19.00;;;;;;;;5107297;28;13426;-80
2023/01/20 01:24:49;;;;;;;;;20.25;17.75;;;;;;;;5107369;28;13494;-79
2023/01/20 01:27:14;;;;;;;;;22.25;18.00;;;;;;;;5107514;28;13517;-79
2023/01/20 01:29:39;;;;;;;;;20.67;19.00;;;;;;;;5089283;28;13429;-80
2023/01/20 01:32:08;;;;;;;;;20.25;18.00;;;;;;;;5107047;28;13455;-80
2023/01/20 01:34:34;;;;;;;;;23.00;20.00;;;;;;;;5107273;28;13399;-80
2023/01/20 01:36:59;;;;;;;;;26.50;20.25;;;;;;;;5107178;28;13450;-80
2023/01/20 01:39:24;;;;;;;;;19.00;18.67;;;;;;;;5089038;28;13570;-80
2023/01/20 01:41:50;;;;;;;;;22.50;19.75;;;;;;;;5107085;28;13445;-81
2023/01/20 01:44:15;;;;;;;;;30.00;24.75;;;;;;;;5107308;28;13421;-80
2023/01/20 01:46:41;;;;;;;;;21.40;18.60;;;;;;;;5107163;28;13390;-80
2023/01/20 01:49:21;;;;;;;;;22.75;20.00;;;;;;;;5107130;28;13599;-81
2023/01/20 01:52:07;;;;;;;;;24.25;20.25;;;;;;;;5107008;28;13468;-81
2023/01/20 01:54:35;;;;;;;;;22.00;20.75;;;;;;;;5088492;28;14263;-81
2023/01/20 01:57:00;;;;;;;;;26.00;20.40;;;;;;;;5113206;22;14303;-75
2023/01/20 01:59:26;;;;;;;;;22.67;19.67;;;;;;;;5067271;28;13464;-74
2023/01/20 02:01:52;;;;;;;;;27.00;23.00;;;;;;;;5085400;28;13429;-74
2023/01/20 02:04:20;;;;;;;;;28.80;23.00;;;;;;;;5085365;28;14205;-74
2023/01/20 02:06:48;;;;;;;;;28.50;24.50;;;;;;;;5085288;28;14315;-74
2023/01/20 02:09:13;;;;;;;;;32.75;28.25;;;;;;;;5085318;28;14246;-74
2023/01/20 02:11:40;;;;;;;;;32.00;29.00;;;;;;;;5066936;28;13485;-75
2023/01/20 02:14:06;;;;;;;;;35.75;35.25;;;;;;;;5085594;28;13568;-75
2023/01/20 02:16:34;;;;;;;;;37.75;36.75;;;;;;;;5067487;28;13474;-74
2023/01/20 02:19:05;;;;;;;;;39.50;37.25;;;;;;;;5086574;28;13528;-76
2023/01/20 02:21:31;;;;;;;;;43.75;38.00;;;;;;;;5089360;28;13565;-76
2023/01/20 02:24:06;;;;;;;;;46.00;40.00;;;;;;;;5089568;28;14256;-72
2023/01/20 02:26:40;;;;;;;;;50.80;41.00;;;;;;;;5089023;28;13468;-73
2023/01/20 02:29:08;;;;;;;;;47.80;40.80;;;;;;;;5088624;28;13463;-73
2023/01/20 02:31:49;;;;;;;;;39.25;36.50;;;;;;;;5088828;28;13515;-72
2023/01/20 02:34:19;;;;;;;;;29.00;28.80;;;;;;;;5070279;28;13527;-73
2023/01/20 02:36:47;;;;;;;;;34.67;33.67;;;;;;;;5088681;28;13435;-72
2023/01/20 02:39:38;;;;;;;;;34.60;31.60;;;;;;;;5088553;28;13414;-72
2023/01/20 02:42:08;;;;;;;;;28.50;28.50;;;;;;;;5049832;28;13445;-72
2023/01/20 02:44:39;;;;;;;;;28.60;27.00;;;;;;;;5088415;28;15109;-72
2023/01/20 02:47:20;;;;;;;;;25.60;25.60;;;;;;;;5088285;28;13407;-72
2023/01/20 02:49:51;;;;;;;;;25.60;24.80;;;;;;;;5070176;28;13430;-73
2023/01/20 02:52:30;;;;;;;;;22.00;22.00;;;;;;;;5088257;28;13530;-73
2023/01/20 02:54:58;;;;;;;;;22.60;20.00;;;;;;;;5070124;28;13608;-73
2023/01/20 02:57:36;;;;;;;;;22.00;22.00;;;;;;;;5088613;28;13478;-72
2023/01/20 03:00:08;;;;;;;;;19.80;19.80;;;;;;;;5087986;28;13420;-73
2023/01/20 03:02:36;;;;;;;;;24.50;20.50;;;;;;;;5087979;28;13443;-73
2023/01/20 03:05:06;;;;;;;;;24.00;21.50;;;;;;;;5088031;28;13452;-73
2023/01/20 03:07:34;;;;;;;;;27.00;19.00;;;;;;;;5088186;28;13472;-73
2023/01/20 03:10:01;;;;;;;;;19.20;19.20;;;;;;;;5069833;28;13543;-73
2023/01/20 03:12:29;;;;;;;;;22.25;18.75;;;;;;;;5087752;28;14306;-72
2023/01/20 03:14:55;;;;;;;;;22.00;19.50;;;;;;;;5088084;28;14140;-73
2023/01/20 03:17:21;;;;;;;;;21.33;21.33;;;;;;;;5088060;28;13417;-73
2023/01/20 03:19:46;;;;;;;;;16.80;15.80;;;;;;;;5087875;28;13402;-73
2023/01/20 03:22:11;;;;;;;;;26.67;22.33;;;;;;;;5087755;28;13407;-73
2023/01/20 03:24:37;;;;;;;;;17.00;15.00;;;;;;;;5087716;28;13444;-72
2023/01/20 03:27:03;;;;;;;;;18.00;18.00;;;;;;;;5087598;28;14228;-72
2023/01/20 03:29:29;;;;;;;;;19.50;19.50;;;;;;;;5087727;28;13444;-72
2023/01/20 03:31:56;;;;;;;;;23.40;19.80;;;;;;;;5087552;28;14406;-73
2023/01/20 03:34:23;;;;;;;;;21.75;19.25;;;;;;;;5069448;28;14241;-73
2023/01/20 03:36:50;;;;;;;;;24.75;22.00;;;;;;;;5087696;28;13539;-73
2023/01/20 03:39:16;;;;;;;;;23.00;22.25;;;;;;;;5069449;28;13436;-73
2023/01/20 03:41:54;;;;;;;;;28.00;24.00;;;;;;;;5069072;28;13462;-73
2023/01/20 06:48:24;;;;;;;;;21.50;20.00;;;;;;;;5101418;27;14416;-79
2023/01/20 06:50:50;;;;;;;;;12.00;10.00;;;;;;;;5087962;28;8906;-85
2023/01/20 06:53:15;;;;;;;;;10.00;9.00;;;;;;;;5088106;28;9506;-81
2023/01/20 06:55:40;;;;;;;;;10.50;7.50;;;;;;;;5087839;28;8845;-80
2023/01/20 06:58:05;;;;;;;;;8.00;6.25;;;;;;;;5087816;28;8792;-84
2023/01/20 07:00:31;;;;;;;;;6.67;5.33;;;;;;;;5088136;28;8861;-83
2023/01/20 07:05:36;;;;;;;;;12.50;11.75;;;;;;;;5105474;27;14291;-82
2023/01/20 07:08:01;;;;;;;;;9.67;6.00;;;;;;;;5088286;28;8933;-81
2023/01/20 07:10:26;;;;;;;;;13.67;12.00;;;;;;;;5087752;28;8799;-82
2023/01/20 07:12:52;;;;;;;;;15.33;13.00;;;;;;;;5069417;28;8842;-82
2023/01/20 07:15:17;;;;;;;;;17.67;9.33;;;;;;;;5087851;28;8807;-81
2023/01/20 07:17:42;;;;;;;;;16.00;12.00;;;;;;;;5087904;28;8795;-82
2023/01/20 07:20:08;;;;;;;;;10.00;10.00;;;;;;;;5089128;28;8788;-82
2023/01/20 07:22:34;;;;;;;;;10.33;9.00;;;;;;;;5087376;28;8815;-81
2023/01/20 07:24:59;;;;;;;;;13.00;11.33;;;;;;;;5087646;28;8942;-82
2023/01/20 07:27:24;;;;;;;;;15.00;12.67;;;;;;;;5087273;28;8787;-81
2023/01/20 07:29:49;;;;;;;;;12.00;12.00;;;;;;;;5087735;28;8908;-81
2023/01/20 07:34:52;;;;;;;;;16.00;15.00;;;;;;;;5025003;28;9611;-75
2023/01/20 07:37:18;;;;;;;;;22.00;15.67;;;;;;;;5026334;28;8798;-76
2023/01/20 07:39:43;;;;;;;;;15.00;8.33;;;;;;;;5026011;28;9508;-75
2023/01/20 07:42:08;;;;;;;;;13.67;10.67;;;;;;;;5025160;28;8822;-75
2023/01/20 07:44:33;;;;;;;;;17.67;14.33;;;;;;;;5026009;28;8810;-72
2023/01/20 07:46:59;;;;;;;;;14.33;11.33;;;;;;;;5025370;28;8795;-72
2023/01/20 07:49:24;;;;;;;;;12.00;12.00;;;;;;;;5007913;28;8821;-71
2023/01/20 07:51:49;;;;;;;;;13.67;12.67;;;;;;;;5025637;28;8798;-73
2023/01/20 07:54:15;;;;;;;;;22.33;16.67;;;;;;;;5025383;28;9451;-71
2023/01/20 07:56:40;;;;;;;;;14.00;12.67;;;;;;;;5024746;28;9529;-72
2023/01/20 07:59:05;;;;;;;;;21.00;16.00;;;;;;;;5025659;28;8905;-69
2023/01/20 08:01:31;;;;;;;;;19.33;18.00;;;;;;;;5025720;28;8937;-69
2023/01/20 08:03:59;;;;;;;;;14.67;12.33;;;;;;;;5025396;28;8964;-70
2023/01/20 08:06:25;;;;;;;;;18.33;16.00;;;;;;;;5025381;28;8825;-70
2023/01/20 08:08:50;;;;;;;;;15.67;13.67;;;;;;;;5025348;28;8782;-70
2023/01/20 08:11:17;;;;;;;;;24.00;20.33;;;;;;;;5025053;28;8803;-70
2023/01/20 08:13:43;;;;;;;;;28.00;25.67;;;;;;;;5025437;28;8826;-70
2023/01/20 08:16:10;;;;;;;;;22.33;20.33;;;;;;;;5015087;28;9011;-71
2023/01/20 08:18:35;;;;;;;;;27.67;19.67;;;;;;;;5012231;28;8887;-71
2023/01/20 08:21:05;;;;;;;;;22.00;20.00;;;;;;;;5012100;28;8802;-72
2023/01/20 08:23:31;;;;;;;;;16.33;14.67;;;;;;;;5012146;28;9762;-73
2023/01/20 08:25:58;;;;;;;;;17.67;14.67;;;;;;;;5012117;28;8790;-81
2023/01/20 08:28:24;;;;;;;;;19.67;14.67;;;;;;;;5012071;28;8887;-72
2023/01/20 08:30:49;;;;;;;;;16.33;16.33;;;;;;;;5011951;28;8913;-72
2023/01/20 11:20:04;;;;;;;;;3.00;3.00;;;;;;;;5103931;27;14290;-72
2023/01/20 11:22:32;;;;;;;;;2.00;2.00;;;;;;;;5106483;28;11411;-73
2023/01/20 11:24:58;;;;;;;;;1.75;1.75;;;;;;;;5107086;28;11484;-71
2023/01/20 11:27:25;;;;;;;;;2.00;2.00;;;;;;;;5105370;28;11452;-72
2023/01/20 11:30:04;;;;;;;;;6.00;2.75;;;;;;;;5106685;28;11458;-71
2023/01/20 11:32:29;;;;;;;;;3.00;1.75;;;;;;;;5106802;28;11536;-72
2023/01/20 11:34:55;;;;;;;;;2.75;1.50;;;;;;;;5106531;28;11436;-72
2023/01/20 11:37:24;;;;;;;;;2.00;2.00;;;;;;;;5106836;28;8795;-72
2023/01/20 11:39:49;;;;;;;;;1.75;1.75;;;;;;;;5106301;28;8962;-71
2023/01/20 11:42:16;;;;;;;;;1.00;1.00;;;;;;;;5106275;28;11484;-72
2023/01/20 11:44:45;;;;;;;;;1.00;1.00;;;;;;;;5106678;28;8803;-72
2023/01/20 11:47:30;;;;;;;;;3.00;1.00;;;;;;;;5105160;28;10759;-72
2023/01/20 11:50:07;;;;;;;;;1.00;1.00;;;;;;;;5106400;28;10716;-71
2023/01/20 11:52:36;;;;;;;;;0.75;0.75;;;;;;;;5105013;28;10486;-72
2023/01/20 11:55:08;;;;;;;;;1.50;1.00;;;;;;;;5106325;28;10576;-72
2023/01/20 11:57:34;;;;;;;;;0.00;0.00;;;;;;;;5104100;28;10872;-72
2023/01/20 11:59:59;;;;;;;;;0.25;0.00;;;;;;;;5106075;28;11103;-71
2023/01/20 12:02:26;;;;;;;;;0.00;0.00;;;;;;;;5104875;28;8892;-72
2023/01/20 12:04:52;;;;;;;;;0.25;0.25;;;;;;;;5106084;28;9477;-72
2023/01/20 12:07:21;;;;;;;;;0.00;0.00;;;;;;;;5105945;28;11369;-71
2023/01/20 12:09:49;;;;;;;;;0.50;0.00;;;;;;;;5105992;28;8800;-72
2023/01/20 12:12:41;;;;;;;;;0.00;0.00;;;;;;;;5105844;28;11530;-72
2023/01/20 12:15:24;;;;;;;;;0.00;0.00;;;;;;;;5104727;28;11453;-72
2023/01/20 12:17:54;;;;;;;;;0.50;0.50;;;;;;;;5105524;28;11445;-71
2023/01/20 12:20:25;;;;;;;;;2.00;0.50;;;;;;;;5105741;28;12181;-70
2023/01/20 12:22:59;;;;;;;;;0.00;0.00;;;;;;;;5104057;28;11473;-71
2023/01/20 12:25:27;;;;;;;;;1.00;1.00;;;;;;;;5104461;28;11444;-72
2023/01/20 12:27:55;;;;;;;;;0.25;0.25;;;;;;;;5105496;28;11540;-71
2023/01/20 12:30:33;;;;;;;;;1.00;0.00;;;;;;;;5097428;28;11541;-72
2023/01/20 12:32:58;;;;;;;;;0.00;0.00;;;;;;;;5091893;28;11501;-72
2023/01/20 12:35:26;;;;;;;;;0.00;0.00;;;;;;;;5091855;28;11687;-71
2023/01/20 12:37:56;;;;;;;;;0.00;0.00;;;;;;;;5092089;28;9565;-71
2023/01/20 12:40:21;;;;;;;;;1.00;1.00;;;;;;;;5091898;28;11426;-72
2023/01/20 12:42:58;;;;;;;;;0.00;0.00;;;;;;;;5091815;28;11514;-71
2023/01/20 12:45:29;;;;;;;;;0.00;0.00;;;;;;;;5091842;28;9534;-72
2023/01/20 12:48:13;;;;;;;;;0.00;0.00;;;;;;;;5091540;28;11433;-71
2023/01/20 12:50:57;;;;;;;;;0.00;0.00;;;;;;;;5091471;28;11568;-71
2023/01/20 12:53:37;;;;;;;;;0.00;0.00;;;;;;;;5091836;28;11498;-72
2023/01/20 12:56:12;;;;;;;;;0.00;0.00;;;;;;;;5091873;28;11417;-71
2023/01/20 12:58:47;;;;;;;;;0.00;0.00;;;;;;;;5091877;28;11460;-71
2023/01/20 13:01:21;;;;;;;;;0.00;0.00;;;;;;;;5091871;28;11436;-71
2023/01/20 13:04:04;;;;;;;;;0.50;0.50;;;;;;;;5091710;28;11434;-71
2023/01/20 13:06:48;;;;;;;;;1.00;1.00;;;;;;;;5089990;28;11517;-71
2023/01/20 13:09:30;;;;;;;;;1.00;1.00;;;;;;;;5092065;28;11485;-72
2023/01/20 13:11:55;;;;;;;;;1.50;1.50;;;;;;;;5090674;28;12225;-72
2023/01/20 13:14:41;;;;;;;;;1.00;1.00;;;;;;;;5091391;28;11429;-72
2023/01/20 13:17:30;;;;;;;;;3.00;1.00;;;;;;;;5091566;28;8961;-72
2023/01/20 13:19:57;;;;;;;;;4.75;2.00;;;;;;;;5087830;28;11479;-71
2023/01/20 13:22:23;;;;;;;;;3.00;2.00;;;;;;;;5091188;28;11440;-70
2023/01/20 13:24:53;;;;;;;;;6.50;1.50;;;;;;;;5096762;28;11491;-72
2023/01/20 13:27:26;;;;;;;;;3.00;2.00;;;;;;;;5106463;28;12301;-73
2023/01/20 13:29:53;;;;;;;;;4.00;2.00;;;;;;;;5104265;28;12179;-73
2023/01/20 13:32:31;;;;;;;;;3.25;2.00;;;;;;;;5089538;28;11458;-72
2023/01/20 13:34:56;;;;;;;;;1.00;1.00;;;;;;;;5091033;28;11480;-76
2023/01/20 13:37:25;;;;;;;;;4.00;4.00;;;;;;;;5089909;28;11450;-74
2023/01/20 13:39:51;;;;;;;;;6.25;4.25;;;;;;;;5090745;28;8824;-74
2023/01/20 13:42:34;;;;;;;;;4.25;4.25;;;;;;;;5089641;28;12171;-74
2023/01/20 13:45:11;;;;;;;;;6.33;4.00;;;;;;;;5098442;28;8801;-73
2023/01/20 13:47:52;;;;;;;;;4.33;4.00;;;;;;;;5098616;28;11442;-73
2023/01/20 18:00:15;;;;;;;;;6.00;5.00;;;;;;;;5116204;27;13398;-68
2023/01/20 18:02:40;;;;;;;;;5.00;3.33;;;;;;;;5115293;28;8809;-68
2023/01/20 18:05:06;;;;;;;;;7.00;7.00;;;;;;;;5115457;27;8825;-67
2023/01/20 18:07:31;;;;;;;;;7.33;5.00;;;;;;;;5113861;27;8797;-68
2023/01/20 18:09:56;;;;;;;;;9.00;5.00;;;;;;;;5113678;28;8796;-66
2023/01/20 18:12:21;;;;;;;;;4.67;4.67;;;;;;;;5105413;28;8819;-68
2023/01/20 18:14:47;;;;;;;;;5.00;5.00;;;;;;;;5108565;27;8821;-68
2023/01/20 18:17:12;;;;;;;;;4.33;3.33;;;;;;;;5106317;28;9624;-68
2023/01/20 18:19:37;;;;;;;;;5.00;3.33;;;;;;;;5106603;28;8834;-68
2023/01/20 18:22:05;;;;;;;;;4.00;2.67;;;;;;;;5106766;28;8784;-67
2023/01/20 18:24:31;;;;;;;;;4.00;4.00;;;;;;;;5109451;28;8800;-68
2023/01/20 18:26:56;;;;;;;;;9.00;7.00;;;;;;;;5106379;28;8812;-68
2023/01/20 18:29:21;;;;;;;;;8.33;5.00;;;;;;;;5106125;28;8833;-68
2023/01/20 18:31:47;;;;;;;;;7.00;7.00;;;;;;;;5105115;28;9535;-68
2023/01/20 18:34:14;;;;;;;;;10.33;7.00;;;;;;;;5104817;28;8915;-67
2023/01/20 18:36:40;;;;;;;;;14.33;12.33;;;;;;;;5096980;27;8920;-68
2023/01/20 18:39:17;;;;;;;;;8.67;6.33;;;;;;;;5125279;27;9049;-67
2023/01/20 18:41:43;;;;;;;;;7.33;7.00;;;;;;;;5106442;28;8795;-67
2023/01/20 18:44:09;;;;;;;;;5.67;4.00;;;;;;;;5104868;28;9579;-67
2023/01/20 18:46:34;;;;;;;;;7.00;7.00;;;;;;;;5125710;27;8900;-68
2023/01/20 18:49:00;;;;;;;;;10.33;10.00;;;;;;;;5123821;27;8874;-69
2023/01/20 18:51:26;;;;;;;;;7.00;5.00;;;;;;;;5104013;28;8838;-66
2023/01/20 18:53:55;;;;;;;;;8.00;4.00;;;;;;;;5108201;27;8979;-68
2023/01/20 18:56:21;;;;;;;;;7.00;5.00;;;;;;;;5109192;27;8813;-67
2023/01/20 18:58:48;;;;;;;;;4.67;2.00;;;;;;;;5115023;27;8841;-67
2023/01/20 19:01:17;;;;;;;;;8.00;5.67;;;;;;;;5116230;27;8811;-67
2023/01/20 19:03:44;;;;;;;;;4.00;4.00;;;;;;;;5092560;27;8951;-68
2023/01/20 19:06:14;;;;;;;;;13.00;8.00;;;;;;;;5100856;28;8800;-67
2023/01/20 19:08:40;;;;;;;;;7.67;5.00;;;;;;;;5105541;28;8816;-67
2023/01/20 19:11:07;;;;;;;;;10.33;8.00;;;;;;;;5094647;28;8842;-68
2023/01/20 19:13:33;;;;;;;;;4.00;2.67;;;;;;;;5092039;28;8788;-67
2023/01/20 19:15:58;;;;;;;;;16.00;9.33;;;;;;;;5090562;28;8854;-66
2023/01/20 19:18:24;;;;;;;;;9.33;9.33;;;;;;;;5090249;28;8843;-69
2023/01/20 19:20:52;;;;;;;;;7.33;7.00;;;;;;;;5091923;28;8776;-68
2023/01/20 19:23:18;;;;;;;;;10.33;7.00;;;;;;;;5092058;28;8792;-66
2023/01/20 19:25:43;;;;;;;;;10.00;7.67;;;;;;;;5090345;28;8808;-68
2023/01/20 19:28:09;;;;;;;;;8.67;7.33;;;;;;;;5091273;28;8792;-66
2023/01/20 19:30:36;;;;;;;;;19.00;11.67;;;;;;;;5093412;28;8962;-67
2023/01/20 19:33:02;;;;;;;;;7.33;7.33;;;;;;;;5102301;28;9538;-67
2023/01/20 19:35:30;;;;;;;;;7.33;5.00;;;;;;;;5099557;28;8793;-67
2023/01/20 19:37:55;;;;;;;;;9.33;9.33;;;;;;;;5101874;28;8780;-67
2023/01/20 19:40:20;;;;;;;;;7.00;5.00;;;;;;;;5102708;28;8825;-69
2023/01/20 19:42:47;;;;;;;;;8.00;8.00;;;;;;;;5098986;28;8945;-68
2023/01/20 19:45:14;;;;;;;;;13.33;11.00;;;;;;;;5096546;28;8919;-67
2023/01/20 19:47:41;;;;;;;;;11.00;10.00;;;;;;;;5111344;28;8872;-68
2023/01/20 19:50:07;;;;;;;;;7.00;5.00;;;;;;;;5109523;28;8835;-70
2023/01/20 19:52:32;;;;;;;;;3.00;3.00;;;;;;;;5091885;28;8998;-67
2023/01/20 19:54:57;;;;;;;;;9.00;4.67;;;;;;;;5096412;28;8855;-67
2023/01/20 19:57:24;;;;;;;;;3.67;3.67;;;;;;;;5100400;28;8959;-68
2023/01/20 19:59:49;;;;;;;;;4.00;4.00;;;;;;;;5100288;28;8825;-68
2023/01/20 20:02:14;;;;;;;;;7.00;4.00;;;;;;;;5102062;28;8923;-67
2023/01/20 20:04:42;;;;;;;;;4.67;3.00;;;;;;;;5097432;28;8838;-68
2023/01/20 20:07:07;;;;;;;;;4.00;4.00;;;;;;;;5101360;28;8791;-68
2023/01/20 20:09:34;;;;;;;;;4.00;3.00;;;;;;;;5099877;28;8862;-69
2023/01/20 20:12:05;;;;;;;;;16.00;13.00;;;;;;;;5090567;28;8808;-69
2023/01/20 20:14:33;;;;;;;;;4.00;3.00;;;;;;;;5090340;28;8818;-68
2023/01/20 20:16:59;;;;;;;;;4.00;4.00;;;;;;;;5091346;28;8816;-67
2023/01/20 20:19:24;;;;;;;;;4.00;4.00;;;;;;;;5090946;28;8857;-68
2023/01/20 20:21:51;;;;;;;;;7.67;4.00;;;;;;;;5096723;28;9023;-67
2023/01/20 20:24:16;;;;;;;;;8.33;6.67;;;;;;;;5101411;28;8793;-67
2023/01/20 20:26:44;;;;;;;;;4.00;1.00;;;;;;;;5090098;28;8808;-67
2023/01/20 20:29:10;;;;;;;;;6.33;3.67;;;;;;;;5089389;28;8800;-67
2023/01/20 20:31:36;;;;;;;;;7.00;4.00;;;;;;;;5089224;28;8896;-67
2023/01/20 20:34:02;;;;;;;;;3.67;3.00;;;;;;;;5089210;28;8814;-68
2023/01/20 20:36:29;;;;;;;;;0.67;0.67;;;;;;;;5089108;28;8815;-68
2023/01/20 20:38:57;;;;;;;;;3.00;3.00;;;;;;;;5091289;28;8859;-67
2023/01/20 20:41:24;;;;;;;;;5.00;3.00;;;;;;;;5090682;28;8803;-67
2023/01/20 20:43:51;;;;;;;;;7.67;4.00;;;;;;;;5089780;28;9052;-67
2023/01/20 20:46:16;;;;;;;;;4.00;3.00;;;;;;;;5089154;28;8823;-67
2023/01/20 20:48:42;;;;;;;;;3.00;2.33;;;;;;;;5090429;28;8910;-69
2023/01/20 20:51:08;;;;;;;;;3.00;3.00;;;;;;;;5088569;28;8870;-68
2023/01/20 20:53:33;;;;;;;;;3.00;3.00;;;;;;;;5090337;28;8831;-68
2023/01/20 20:56:02;;;;;;;;;6.67;3.00;;;;;;;;5090296;28;8922;-68
2023/01/20 20:58:29;;;;;;;;;4.00;1.00;;;;;;;;5089868;28;9520;-67
2023/01/20 21:00:55;;;;;;;;;4.00;2.33;;;;;;;;5089906;28;8812;-70
2023/01/20 21:03:20;;;;;;;;;1.00;1.00;;;;;;;;5089960;28;8788;-69
2023/01/20 21:05:48;;;;;;;;;3.00;3.00;;;;;;;;5089923;28;8808;-69
2023/01/20 21:08:13;;;;;;;;;1.00;1.00;;;;;;;;5090372;28;8827;-69
2023/01/20 21:10:39;;;;;;;;;3.00;3.00;;;;;;;;5090156;28;8814;-69
2023/01/20 21:13:07;;;;;;;;;6.00;3.33;;;;;;;;5087688;28;8800;-68
2023/01/20 21:15:33;;;;;;;;;6.00;3.00;;;;;;;;5090322;28;9563;-69
2023/01/20 21:17:58;;;;;;;;;1.67;1.67;;;;;;;;5089859;28;8870;-69
2023/01/20 21:20:24;;;;;;;;;3.00;3.00;;;;;;;;5090198;28;8772;-68
2023/01/20 21:22:49;;;;;;;;;6.00;4.00;;;;;;;;5089326;28;8821;-69
2023/01/20 21:25:16;;;;;;;;;3.00;3.00;;;;;;;;5088617;28;8820;-68
2023/01/20 21:27:41;;;;;;;;;3.00;3.00;;;;;;;;5089783;28;8804;-69
2023/01/20 21:30:07;;;;;;;;;1.00;1.00;;;;;;;;5089638;28;9549;-69
2023/01/20 21:32:32;;;;;;;;;3.33;3.00;;;;;;;;5089387;28;8800;-68
2023/01/20 21:35:00;;;;;;;;;1.00;1.00;;;;;;;;5088908;28;8892;-69
2023/01/20 21:37:25;;;;;;;;;4.00;3.00;;;;;;;;5088246;28;8843;-69
2023/01/20 21:39:51;;;;;;;;;1.00;1.00;;;;;;;;5089226;28;8842;-68
2023/01/20 21:42:16;;;;;;;;;1.00;1.00;;;;;;;;5089337;28;8819;-68
2023/01/20 21:44:42;;;;;;;;;1.00;1.00;;;;;;;;5088938;28;8823;-68
2023/01/20 21:47:07;;;;;;;;;1.00;1.00;;;;;;;;5088760;28;8894;-69
2023/01/20 21:55:05;;;;;;;;;3.33;2.33;;;;;;;;5088950;28;8784;-69
2023/01/20 21:57:33;;;;;;;;;3.00;3.00;;;;;;;;5088942;28;8803;-69
2023/01/20 21:59:58;;;;;;;;;5.00;3.00;;;;;;;;5089106;28;8827;-68
2023/01/20 22:02:25;;;;;;;;;1.67;1.00;;;;;;;;5089480;28;8780;-68
2023/01/20 22:04:50;;;;;;;;;1.00;1.00;;;;;;;;5089188;28;8806;-69
2023/01/20 22:07:16;;;;;;;;;1.67;0.33;;;;;;;;5089134;28;8815;-68
2023/01/20 22:09:50;;;;;;;;;3.00;3.00;;;;;;;;5089171;28;8804;-70
2023/01/20 22:12:16;;;;;;;;;3.00;3.00;;;;;;;;5088240;28;8827;-69
2023/01/20 22:14:41;;;;;;;;;3.00;1.00;;;;;;;;5089011;28;8840;-68
2023/01/20 22:17:07;;;;;;;;;1.00;1.00;;;;;;;;5000253;27;10349;-68
2023/01/20 22:19:32;;;;;;;;;1.67;1.67;;;;;;;;5029204;28;8859;-68
2023/01/20 22:22:01;;;;;;;;;1.67;1.67;;;;;;;;5028894;28;8792;-68
2023/01/20 22:24:27;;;;;;;;;3.00;3.00;;;;;;;;5027549;28;8877;-68
2023/01/20 22:26:52;;;;;;;;;2.33;1.00;;;;;;;;4976191;28;13193;-68
2023/01/20 22:29:17;;;;;;;;;4.67;1.00;;;;;;;;5028409;28;9519;-68
2023/01/20 22:31:43;;;;;;;;;2.33;2.33;;;;;;;;5029129;28;8800;-68
2023/01/20 22:34:09;;;;;;;;;1.00;1.00;;;;;;;;5029126;28;8906;-68
2023/01/20 22:36:34;;;;;;;;;1.00;1.00;;;;;;;;5028813;28;8915;-69
2023/01/20 22:39:00;;;;;;;;;4.00;2.33;;;;;;;;5023764;28;9542;-67
2023/01/20 22:41:25;;;;;;;;;0.00;0.00;;;;;;;;5009143;28;8805;-68
2023/01/20 22:43:51;;;;;;;;;4.00;3.00;;;;;;;;5008735;28;8823;-69
2023/01/20 22:46:17;;;;;;;;;0.33;0.33;;;;;;;;5011301;28;8848;-68
2023/01/20 22:48:43;;;;;;;;;3.33;3.00;;;;;;;;5012805;28;8783;-68
2023/01/20 22:51:09;;;;;;;;;3.00;1.67;;;;;;;;5012791;28;8793;-68
2023/01/20 22:53:35;;;;;;;;;4.00;3.00;;;;;;;;5012060;28;8790;-68
2023/01/20 22:56:02;;;;;;;;;1.67;1.67;;;;;;;;5012700;28;8832;-68
2023/01/20 22:58:28;;;;;;;;;3.00;2.33;;;;;;;;5012346;28;8968;-68
2023/01/20 23:00:53;;;;;;;;;3.00;1.67;;;;;;;;5010856;28;8830;-68
2023/01/20 23:03:18;;;;;;;;;4.00;1.00;;;;;;;;5012422;28;8888;-68
2023/01/20 23:05:50;;;;;;;;;3.00;3.00;;;;;;;;5012528;28;8797;-67
2023/01/20 23:08:16;;;;;;;;;1.00;1.00;;;;;;;;5012555;28;8933;-68
2023/01/20 23:10:47;;;;;;;;;4.00;1.00;;;;;;;;5010842;28;8806;-68
2023/01/20 23:13:13;;;;;;;;;2.67;2.33;;;;;;;;5012509;28;8806;-69
2023/01/20 23:15:38;;;;;;;;;3.00;1.00;;;;;;;;5012425;28;8923;-68
2023/01/20 23:18:03;;;;;;;;;3.00;3.00;;;;;;;;5012319;28;8945;-68
2023/01/20 23:20:29;;;;;;;;;2.33;1.00;;;;;;;;5010611;28;8826;-68
2023/01/20 23:22:54;;;;;;;;;1.00;1.00;;;;;;;;5010756;28;8811;-67
2023/01/20 23:25:19;;;;;;;;;1.00;1.00;;;;;;;;5012028;28;8872;-68
2023/01/20 23:27:44;;;;;;;;;1.00;1.00;;;;;;;;5012048;28;8786;-68
2023/01/20 23:30:10;;;;;;;;;1.00;1.00;;;;;;;;5012048;28;8798;-69
2023/01/20 23:32:36;;;;;;;;;2.33;2.33;;;;;;;;5011928;28;8868;-67
2023/01/20 23:35:01;;;;;;;;;3.00;0.67;;;;;;;;5011929;28;8872;-67
2023/01/20 23:37:26;;;;;;;;;3.33;0.00;;;;;;;;5011908;28;8802;-68
2023/01/20 23:39:52;;;;;;;;;2.33;2.33;;;;;;;;5010238;28;8861;-67
2023/01/20 23:42:17;;;;;;;;;5.33;3.33;;;;;;;;5011821;28;8955;-67
2023/01/20 23:44:42;;;;;;;;;3.00;1.00;;;;;;;;5011772;28;8782;-68
2023/01/20 23:47:09;;;;;;;;;0.00;0.00;;;;;;;;5012060;28;8778;-68
2023/01/20 23:49:34;;;;;;;;;2.33;2.33;;;;;;;;5011560;28;8909;-67
2023/01/20 23:51:59;;;;;;;;;0.00;0.00;;;;;;;;5011836;28;8782;-66
2023/01/20 23:54:25;;;;;;;;;1.00;1.00;;;;;;;;5011577;28;8794;-68
2023/01/20 23:56:50;;;;;;;;;1.00;1.00;;;;;;;;5011366;28;9489;-67
2023/01/20 23:59:15;;;;;;;;;1.67;1.00;;;;;;;;5011333;28;8954;-68
